sensor_id;sensor_type;location;lat;lon;timestamp;pressure;altitude;pressure_sealevel;temperature;humidity
69402;BME280;56589;51.992;5.924;2023-03-19T00:02:10;100540.13;;;11.27;69.74
69402;BME280;56589;51.992;5.924;2023-03-19T00:04:36;100540.47;;;11.23;69.99
69402;BME280;56589;51.992;5.924;2023-03-19T00:07:05;100536.59;;;11.16;70.27
69402;BME280;56589;51.992;5.924;2023-03-19T00:09:30;100535.22;;;11.10;70.58
69402;BME280;56589;51.992;5.924;2023-03-19T00:11:56;100531.97;;;11.06;70.59
69402;BME280;56589;51.992;5.924;2023-03-19T00:14:22;100537.34;;;11.05;70.83
69402;BME280;56589;51.992;5.924;2023-03-19T00:16:48;100540.16;;;11.02;70.86
69402;BME280;56589;51.992;5.924;2023-03-19T00:19:17;100542.25;;;10.97;70.97
69402;BME280;56589;51.992;5.924;2023-03-19T00:21:43;100537.97;;;10.96;71.60
69402;BME280;56589;51.992;5.924;2023-03-19T00:24:08;100537.00;;;10.97;71.66
69402;BME280;56589;51.992;5.924;2023-03-19T00:26:35;100536.19;;;10.96;71.62
69402;BME280;56589;51.992;5.924;2023-03-19T00:29:03;100537.34;;;10.92;71.63
69402;BME280;56589;51.992;5.924;2023-03-19T00:31:29;100533.88;;;10.92;71.74
69402;BME280;56589;51.992;5.924;2023-03-19T00:33:56;100532.19;;;10.91;71.94
69402;BME280;56589;51.992;5.924;2023-03-19T00:36:25;100537.66;;;10.88;71.98
69402;BME280;56589;51.992;5.924;2023-03-19T00:38:52;100532.59;;;10.84;71.83
69402;BME280;56589;51.992;5.924;2023-03-19T00:41:18;100536.31;;;10.82;72.00
69402;BME280;56589;51.992;5.924;2023-03-19T00:43:45;100538.09;;;10.81;72.24
69402;BME280;56589;51.992;5.924;2023-03-19T00:46:11;100536.38;;;10.80;72.52
69402;BME280;56589;51.992;5.924;2023-03-19T00:48:38;100538.16;;;10.80;72.33
69402;BME280;56589;51.992;5.924;2023-03-19T00:51:06;100537.25;;;10.81;72.50
69402;BME280;56589;51.992;5.924;2023-03-19T00:53:36;100539.97;;;10.79;72.68
69402;BME280;56589;51.992;5.924;2023-03-19T00:56:03;100541.63;;;10.80;72.70
69402;BME280;56589;51.992;5.924;2023-03-19T00:58:29;100545.22;;;10.79;72.62
69402;BME280;56589;51.992;5.924;2023-03-19T01:00:55;100546.03;;;10.80;72.30
69402;BME280;56589;51.992;5.924;2023-03-19T01:03:21;100540.78;;;10.80;72.62
69402;BME280;56589;51.992;5.924;2023-03-19T01:05:47;100539.97;;;10.79;72.41
69402;BME280;56589;51.992;5.924;2023-03-19T01:08:14;100538.25;;;10.78;72.56
69402;BME280;56589;51.992;5.924;2023-03-19T01:10:43;100536.56;;;10.77;73.01
69402;BME280;56589;51.992;5.924;2023-03-19T01:13:10;100540.03;;;10.78;73.03
69402;BME280;56589;51.992;5.924;2023-03-19T01:15:37;100532.50;;;10.73;73.18
69402;BME280;56589;51.992;5.924;2023-03-19T01:18:03;100543.00;;;10.73;73.00
69402;BME280;56589;51.992;5.924;2023-03-19T01:20:29;100543.97;;;10.72;73.17
69402;BME280;56589;51.992;5.924;2023-03-19T01:22:55;100541.22;;;10.74;73.17
69402;BME280;56589;51.992;5.924;2023-03-19T01:25:21;100540.38;;;10.73;72.94
69402;BME280;56589;51.992;5.924;2023-03-19T01:27:50;100541.22;;;10.74;73.48
69402;BME280;56589;51.992;5.924;2023-03-19T01:30:17;100528.41;;;10.69;72.94
69402;BME280;56589;51.992;5.924;2023-03-19T01:32:43;100539.13;;;10.66;73.04
69402;BME280;56589;51.992;5.924;2023-03-19T01:35:09;100537.75;;;10.61;73.26
69402;BME280;56589;51.992;5.924;2023-03-19T01:37:35;100541.53;;;10.56;73.31
69402;BME280;56589;51.992;5.924;2023-03-19T01:40:01;100548.03;;;10.51;73.25
69402;BME280;56589;51.992;5.924;2023-03-19T01:42:27;100543.91;;;10.47;73.42
69402;BME280;56589;51.992;5.924;2023-03-19T01:44:56;100539.84;;;10.43;73.24
69402;BME280;56589;51.992;5.924;2023-03-19T01:47:28;100536.78;;;10.36;73.62
69402;BME280;56589;51.992;5.924;2023-03-19T01:49:57;100539.81;;;10.30;73.77
69402;BME280;56589;51.992;5.924;2023-03-19T01:52:27;100532.44;;;10.22;73.95
69402;BME280;56589;51.992;5.924;2023-03-19T01:54:59;100535.28;;;10.19;74.19
69402;BME280;56589;51.992;5.924;2023-03-19T01:57:31;100533.59;;;10.18;74.07
69402;BME280;56589;51.992;5.924;2023-03-19T02:00:01;100540.72;;;10.16;74.60
69402;BME280;56589;51.992;5.924;2023-03-19T02:02:32;100534.56;;;10.17;74.26
69402;BME280;56589;51.992;5.924;2023-03-19T02:05:02;100528.34;;;10.18;74.64
69402;BME280;56589;51.992;5.924;2023-03-19T02:07:34;100523.13;;;10.18;74.25
69402;BME280;56589;51.992;5.924;2023-03-19T02:10:04;100534.63;;;10.16;74.67
69402;BME280;56589;51.992;5.924;2023-03-19T02:12:32;100545.13;;;10.16;74.48
69402;BME280;56589;51.992;5.924;2023-03-19T02:15:02;100536.41;;;10.15;75.02
69402;BME280;56589;51.992;5.924;2023-03-19T02:17:29;100536.41;;;10.15;75.09
69402;BME280;56589;51.992;5.924;2023-03-19T02:19:59;100531.81;;;10.19;75.11
69402;BME280;56589;51.992;5.924;2023-03-19T02:22:31;100536.97;;;10.20;75.21
69402;BME280;56589;51.992;5.924;2023-03-19T02:25:02;100540.31;;;10.22;75.42
69402;BME280;56589;51.992;5.924;2023-03-19T02:27:37;100531.41;;;10.25;75.03
69402;BME280;56589;51.992;5.924;2023-03-19T02:30:17;100538.13;;;10.29;75.46
69402;BME280;56589;51.992;5.924;2023-03-19T02:32:45;100533.63;;;10.31;75.10
69402;BME280;56589;51.992;5.924;2023-03-19T02:35:11;100529.94;;;10.34;75.25
69402;BME280;56589;51.992;5.924;2023-03-19T02:37:37;100538.47;;;10.37;75.33
69402;BME280;56589;51.992;5.924;2023-03-19T02:40:06;100527.13;;;10.37;75.39
69402;BME280;56589;51.992;5.924;2023-03-19T02:42:38;100535.84;;;10.37;75.71
69402;BME280;56589;51.992;5.924;2023-03-19T02:45:05;100538.56;;;10.36;75.50
69402;BME280;56589;51.992;5.924;2023-03-19T02:47:32;100528.81;;;10.38;75.22
69402;BME280;56589;51.992;5.924;2023-03-19T02:49:57;100535.63;;;10.40;75.32
69402;BME280;56589;51.992;5.924;2023-03-19T02:52:23;100533.94;;;10.39;75.42
69402;BME280;56589;51.992;5.924;2023-03-19T02:54:49;100540.88;;;10.40;75.21
69402;BME280;56589;51.992;5.924;2023-03-19T02:57:15;100536.56;;;10.39;75.43
69402;BME280;56589;51.992;5.924;2023-03-19T02:59:43;100533.84;;;10.41;75.65
69402;BME280;56589;51.992;5.924;2023-03-19T03:02:09;100539.00;;;10.42;75.33
69402;BME280;56589;51.992;5.924;2023-03-19T03:04:36;100544.13;;;10.44;75.63
69402;BME280;56589;51.992;5.924;2023-03-19T03:07:02;100544.88;;;10.46;75.34
69402;BME280;56589;51.992;5.924;2023-03-19T03:09:28;100543.91;;;10.47;75.39
69402;BME280;56589;51.992;5.924;2023-03-19T03:11:54;100544.66;;;10.49;75.47
69402;BME280;56589;51.992;5.924;2023-03-19T03:14:19;100545.50;;;10.49;75.50
69402;BME280;56589;51.992;5.924;2023-03-19T03:16:48;100548.97;;;10.50;75.43
69402;BME280;56589;51.992;5.924;2023-03-19T03:19:14;100554.94;;;10.52;75.50
69402;BME280;56589;51.992;5.924;2023-03-19T03:21:39;100558.53;;;10.51;75.79
69402;BME280;56589;51.992;5.924;2023-03-19T03:24:06;100554.94;;;10.52;75.99
69402;BME280;56589;51.992;5.924;2023-03-19T03:26:32;100566.41;;;10.51;75.65
69402;BME280;56589;51.992;5.924;2023-03-19T03:28:58;100571.75;;;10.49;75.86
69402;BME280;56589;51.992;5.924;2023-03-19T03:31:24;100562.28;;;10.47;75.96
69402;BME280;56589;51.992;5.924;2023-03-19T03:33:53;100561.69;;;10.43;76.44
69402;BME280;56589;51.992;5.924;2023-03-19T03:36:18;100564.50;;;10.40;76.22
69402;BME280;56589;51.992;5.924;2023-03-19T03:38:44;100565.31;;;10.41;76.44
69402;BME280;56589;51.992;5.924;2023-03-19T03:41:10;100559.25;;;10.40;76.24
69402;BME280;56589;51.992;5.924;2023-03-19T03:43:36;100556.63;;;10.40;76.42
69402;BME280;56589;51.992;5.924;2023-03-19T03:46:02;100560.06;;;10.41;76.71
69402;BME280;56589;51.992;5.924;2023-03-19T03:48:28;100562.63;;;10.42;76.88
69402;BME280;56589;51.992;5.924;2023-03-19T03:50:56;100559.06;;;10.43;76.98
69402;BME280;56589;51.992;5.924;2023-03-19T03:53:22;100552.75;;;10.46;76.99
69402;BME280;56589;51.992;5.924;2023-03-19T03:55:48;100558.94;;;10.45;76.95
69402;BME280;56589;51.992;5.924;2023-03-19T03:58:14;100552.97;;;10.43;76.81
69402;BME280;56589;51.992;5.924;2023-03-19T04:00:40;100560.19;;;10.39;76.86
69402;BME280;56589;51.992;5.924;2023-03-19T04:03:05;100562.09;;;10.37;76.81
69402;BME280;56589;51.992;5.924;2023-03-19T04:05:31;100563.22;;;10.33;76.95
69402;BME280;56589;51.992;5.924;2023-03-19T04:08:00;100562.38;;;10.33;76.85
69402;BME280;56589;51.992;5.924;2023-03-19T04:10:25;100565.97;;;10.32;77.29
69402;BME280;56589;51.992;5.924;2023-03-19T04:12:51;100565.97;;;10.32;77.33
69402;BME280;56589;51.992;5.924;2023-03-19T04:15:17;100566.69;;;10.34;77.30
69402;BME280;56589;51.992;5.924;2023-03-19T04:17:43;100573.59;;;10.35;77.34
69402;BME280;56589;51.992;5.924;2023-03-19T04:20:10;100567.34;;;10.37;77.46
69402;BME280;56589;51.992;5.924;2023-03-19T04:22:36;100567.13;;;10.40;77.14
69402;BME280;56589;51.992;5.924;2023-03-19T04:25:06;100571.34;;;10.43;77.12
69402;BME280;56589;51.992;5.924;2023-03-19T04:27:32;100575.63;;;10.44;77.38
69402;BME280;56589;51.992;5.924;2023-03-19T04:29:58;100575.75;;;10.42;77.58
69402;BME280;56589;51.992;5.924;2023-03-19T04:32:24;100566.16;;;10.41;77.68
69402;BME280;56589;51.992;5.924;2023-03-19T04:34:50;100571.53;;;10.40;77.18
69402;BME280;56589;51.992;5.924;2023-03-19T04:37:16;100573.31;;;10.39;77.24
69402;BME280;56589;51.992;5.924;2023-03-19T04:39:43;100579.50;;;10.38;77.47
69402;BME280;56589;51.992;5.924;2023-03-19T04:42:12;100578.84;;;10.35;77.01
69402;BME280;56589;51.992;5.924;2023-03-19T04:44:37;100583.38;;;10.33;77.12
69402;BME280;56589;51.992;5.924;2023-03-19T04:47:04;100583.59;;;10.29;77.31
69402;BME280;56589;51.992;5.924;2023-03-19T04:49:30;100587.13;;;10.28;77.27
69402;BME280;56589;51.992;5.924;2023-03-19T04:51:56;100584.63;;;10.27;77.46
69402;BME280;56589;51.992;5.924;2023-03-19T04:54:21;100579.59;;;10.24;77.68
69402;BME280;56589;51.992;5.924;2023-03-19T04:56:47;100590.16;;;10.22;77.87
69402;BME280;56589;51.992;5.924;2023-03-19T04:59:16;100587.53;;;10.22;77.84
69402;BME280;56589;51.992;5.924;2023-03-19T05:01:42;100591.00;;;10.23;77.64
69402;BME280;56589;51.992;5.924;2023-03-19T05:04:08;100582.28;;;10.22;78.00
69402;BME280;56589;51.992;5.924;2023-03-19T05:06:36;100588.59;;;10.20;78.10
69402;BME280;56589;51.992;5.924;2023-03-19T05:09:05;100585.25;;;10.18;77.65
69402;BME280;56589;51.992;5.924;2023-03-19T05:11:31;100588.88;;;10.15;77.98
69402;BME280;56589;51.992;5.924;2023-03-19T05:13:57;100600.31;;;10.14;77.85
69402;BME280;56589;51.992;5.924;2023-03-19T05:16:25;100600.31;;;10.14;78.27
69402;BME280;56589;51.992;5.924;2023-03-19T05:18:51;100597.91;;;10.11;78.13
69402;BME280;56589;51.992;5.924;2023-03-19T05:21:17;100599.66;;;10.11;78.17
69402;BME280;56589;51.992;5.924;2023-03-19T05:23:43;100602.41;;;10.09;78.30
69402;BME280;56589;51.992;5.924;2023-03-19T05:26:09;100601.47;;;10.10;78.13
69402;BME280;56589;51.992;5.924;2023-03-19T05:28:35;100605.03;;;10.09;78.58
69402;BME280;56589;51.992;5.924;2023-03-19T05:31:03;100605.97;;;10.08;78.38
69402;BME280;56589;51.992;5.924;2023-03-19T05:33:31;100605.03;;;10.09;78.48
69402;BME280;56589;51.992;5.924;2023-03-19T05:35:57;100608.41;;;10.11;78.20
69402;BME280;56589;51.992;5.924;2023-03-19T05:38:23;100607.47;;;10.12;78.58
69402;BME280;56589;51.992;5.924;2023-03-19T05:40:49;100612.72;;;10.12;78.42
69402;BME280;56589;51.992;5.924;2023-03-19T05:43:15;100610.94;;;10.13;78.52
69402;BME280;56589;51.992;5.924;2023-03-19T05:45:40;100615.41;;;10.11;78.39
69402;BME280;56589;51.992;5.924;2023-03-19T05:48:08;100620.66;;;10.11;78.74
69402;BME280;56589;51.992;5.924;2023-03-19T05:50:37;100614.69;;;10.09;78.67
69402;BME280;56589;51.992;5.924;2023-03-19T05:53:03;100617.19;;;10.10;78.80
69402;BME280;56589;51.992;5.924;2023-03-19T05:55:29;100620.66;;;10.11;78.55
69402;BME280;56589;51.992;5.924;2023-03-19T05:57:55;100620.88;;;10.08;78.82
69402;BME280;56589;51.992;5.924;2023-03-19T06:00:21;100625.28;;;10.07;78.54
69402;BME280;56589;51.992;5.924;2023-03-19T06:02:47;100632.31;;;10.07;78.45
69402;BME280;56589;51.992;5.924;2023-03-19T06:05:13;100638.50;;;10.06;78.42
69402;BME280;56589;51.992;5.924;2023-03-19T06:07:41;100634.00;;;10.08;78.79
69402;BME280;56589;51.992;5.924;2023-03-19T06:10:10;100639.13;;;10.09;78.52
69402;BME280;56589;51.992;5.924;2023-03-19T06:12:36;100636.50;;;10.09;78.41
69402;BME280;56589;51.992;5.924;2023-03-19T06:15:02;100641.56;;;10.12;78.84
69402;BME280;56589;51.992;5.924;2023-03-19T06:17:28;100650.16;;;10.14;78.43
69402;BME280;56589;51.992;5.924;2023-03-19T06:19:54;100651.75;;;10.17;78.75
69402;BME280;56589;51.992;5.924;2023-03-19T06:22:21;100663.00;;;10.19;78.73
69402;BME280;56589;51.992;5.924;2023-03-19T06:24:50;100660.28;;;10.20;78.45
69402;BME280;56589;51.992;5.924;2023-03-19T06:27:16;100659.22;;;10.23;78.67
69402;BME280;56589;51.992;5.924;2023-03-19T06:29:41;100663.56;;;10.24;78.29
69402;BME280;56589;51.992;5.924;2023-03-19T06:32:08;100653.78;;;10.26;78.45
69402;BME280;56589;51.992;5.924;2023-03-19T06:34:34;100669.31;;;10.29;78.68
69402;BME280;56589;51.992;5.924;2023-03-19T06:37:00;100671.75;;;10.32;78.53
69402;BME280;56589;51.992;5.924;2023-03-19T06:39:27;100671.53;;;10.35;78.50
69402;BME280;56589;51.992;5.924;2023-03-19T06:41:55;100669.97;;;10.33;78.57
69402;BME280;56589;51.992;5.924;2023-03-19T06:44:21;100674.28;;;10.34;78.67
69402;BME280;56589;51.992;5.924;2023-03-19T06:46:47;100684.59;;;10.37;77.93
69402;BME280;56589;51.992;5.924;2023-03-19T06:49:13;100683.00;;;10.34;78.08
69402;BME280;56589;51.992;5.924;2023-03-19T06:51:39;100693.41;;;10.36;78.10
69402;BME280;56589;51.992;5.924;2023-03-19T06:54:05;100685.53;;;10.36;78.27
69402;BME280;56589;51.992;5.924;2023-03-19T06:56:30;100686.44;;;10.35;78.34
69402;BME280;56589;51.992;5.924;2023-03-19T06:58:59;100684.50;;;10.38;78.08
69402;BME280;56589;51.992;5.924;2023-03-19T07:01:25;100682.69;;;10.39;78.23
69402;BME280;56589;51.992;5.924;2023-03-19T07:03:50;100687.09;;;10.38;78.39
69402;BME280;56589;51.992;5.924;2023-03-19T07:06:16;100694.97;;;10.38;77.87
69402;BME280;56589;51.992;5.924;2023-03-19T07:08:42;100694.78;;;10.41;78.42
69402;BME280;56589;51.992;5.924;2023-03-19T07:11:08;100703.19;;;10.46;78.08
69402;BME280;56589;51.992;5.924;2023-03-19T07:13:34;100693.34;;;10.50;78.11
69402;BME280;56589;51.992;5.924;2023-03-19T07:16:03;100700.94;;;10.54;78.10
69402;BME280;56589;51.992;5.924;2023-03-19T07:18:29;100713.00;;;10.57;77.94
69402;BME280;56589;51.992;5.924;2023-03-19T07:20:55;100717.13;;;10.61;77.73
69402;BME280;56589;51.992;5.924;2023-03-19T07:23:21;100721.22;;;10.65;77.84
69402;BME280;56589;51.992;5.924;2023-03-19T07:25:47;100724.78;;;10.64;77.62
69402;BME280;56589;51.992;5.924;2023-03-19T07:28:14;100722.91;;;10.66;77.52
69402;BME280;56589;51.992;5.924;2023-03-19T07:30:40;100726.38;;;10.67;77.22
69402;BME280;56589;51.992;5.924;2023-03-19T07:33:08;100728.06;;;10.68;77.18
69402;BME280;56589;51.992;5.924;2023-03-19T07:35:34;100725.16;;;10.72;77.60
69402;BME280;56589;51.992;5.924;2023-03-19T07:38:00;100724.44;;;10.83;77.87
69402;BME280;56589;51.992;5.924;2023-03-19T07:40:26;100730.13;;;10.90;77.56
69402;BME280;56589;51.992;5.924;2023-03-19T07:42:52;100730.69;;;10.95;77.13
69402;BME280;56589;51.992;5.924;2023-03-19T07:45:18;100732.34;;;10.96;76.71
69402;BME280;56589;51.992;5.924;2023-03-19T07:47:44;100733.41;;;10.93;76.69
69402;BME280;56589;51.992;5.924;2023-03-19T07:50:13;100740.34;;;10.94;77.09
69402;BME280;56589;51.992;5.924;2023-03-19T07:52:38;100742.78;;;10.97;77.03
69402;BME280;56589;51.992;5.924;2023-03-19T07:55:05;100741.91;;;10.97;76.65
69402;BME280;56589;51.992;5.924;2023-03-19T07:57:31;100742.88;;;10.96;76.33
69402;BME280;56589;51.992;5.924;2023-03-19T07:59:57;100741.72;;;11.00;76.74
69402;BME280;56589;51.992;5.924;2023-03-19T08:02:23;100747.31;;;11.08;76.55
69402;BME280;56589;51.992;5.924;2023-03-19T08:04:49;100744.25;;;11.14;76.29
69402;BME280;56589;51.992;5.924;2023-03-19T08:07:18;100752.69;;;11.19;76.67
69402;BME280;56589;51.992;5.924;2023-03-19T08:09:43;100749.22;;;11.31;76.59
69402;BME280;56589;51.992;5.924;2023-03-19T08:12:10;100746.72;;;11.43;76.16
69402;BME280;56589;51.992;5.924;2023-03-19T08:14:36;100753.03;;;11.53;75.76
69402;BME280;56589;51.992;5.924;2023-03-19T08:17:02;100749.16;;;11.58;75.71
69402;BME280;56589;51.992;5.924;2023-03-19T08:19:28;100752.09;;;11.67;75.67
69402;BME280;56589;51.992;5.924;2023-03-19T08:21:53;100754.28;;;11.73;75.10
69402;BME280;56589;51.992;5.924;2023-03-19T08:24:22;100748.72;;;11.77;75.15
69402;BME280;56589;51.992;5.924;2023-03-19T08:26:48;100765.88;;;11.83;75.07
69402;BME280;56589;51.992;5.924;2023-03-19T08:29:14;100763.81;;;11.99;75.01
69402;BME280;56589;51.992;5.924;2023-03-19T08:31:40;100766.31;;;12.13;74.89
69402;BME280;56589;51.992;5.924;2023-03-19T08:34:07;100769.31;;;12.22;74.02
69402;BME280;56589;51.992;5.924;2023-03-19T08:36:34;100773.91;;;12.18;73.62
69402;BME280;56589;51.992;5.924;2023-03-19T08:39:00;100774.66;;;12.07;74.09
69402;BME280;56589;51.992;5.924;2023-03-19T08:41:29;100769.84;;;12.01;73.74
69402;BME280;56589;51.992;5.924;2023-03-19T08:43:55;100777.09;;;11.98;73.74
69402;BME280;56589;51.992;5.924;2023-03-19T08:46:21;100776.38;;;11.96;73.77
69402;BME280;56589;51.992;5.924;2023-03-19T08:48:47;100789.31;;;11.99;73.95
69402;BME280;56589;51.992;5.924;2023-03-19T08:51:12;100789.94;;;12.02;73.96
69402;BME280;56589;51.992;5.924;2023-03-19T08:53:38;100798.44;;;12.06;73.93
69402;BME280;56589;51.992;5.924;2023-03-19T08:56:06;100788.69;;;12.08;73.41
69402;BME280;56589;51.992;5.924;2023-03-19T08:58:35;100794.88;;;12.07;73.26
69402;BME280;56589;51.992;5.924;2023-03-19T09:01:06;100799.53;;;12.03;73.23
69402;BME280;56589;51.992;5.924;2023-03-19T09:03:33;100803.00;;;12.04;73.27
69402;BME280;56589;51.992;5.924;2023-03-19T09:06:01;100804.66;;;12.05;73.43
69402;BME280;56589;51.992;5.924;2023-03-19T09:08:30;100800.88;;;12.09;73.41
69402;BME280;56589;51.992;5.924;2023-03-19T09:10:57;100808.94;;;12.18;73.19
69402;BME280;56589;51.992;5.924;2023-03-19T09:13:24;100813.09;;;12.23;73.12
69402;BME280;56589;51.992;5.924;2023-03-19T09:15:53;100820.03;;;12.24;73.00
69402;BME280;56589;51.992;5.924;2023-03-19T09:18:19;100818.03;;;12.27;72.82
69402;BME280;56589;51.992;5.924;2023-03-19T09:20:46;100825.28;;;12.36;72.70
69402;BME280;56589;51.992;5.924;2023-03-19T09:25:47;100818.81;;;12.53;72.45
69402;BME280;56589;51.992;5.924;2023-03-19T09:28:13;100819.34;;;12.58;72.14
69402;BME280;56589;51.992;5.924;2023-03-19T09:30:39;100818.25;;;12.61;71.48
69402;BME280;56589;51.992;5.924;2023-03-19T09:33:08;100816.25;;;12.64;71.57
69402;BME280;56589;51.992;5.924;2023-03-19T09:35:34;100825.84;;;12.65;71.14
69402;BME280;56589;51.992;5.924;2023-03-19T09:37:59;100826.47;;;12.69;70.77
69402;BME280;56589;51.992;5.924;2023-03-19T09:40:28;100822.03;;;12.69;70.55
69402;BME280;56589;51.992;5.924;2023-03-19T09:43:04;100823.84;;;12.69;70.79
69402;BME280;56589;51.992;5.924;2023-03-19T09:45:50;100825.41;;;12.71;70.83
69402;BME280;56589;51.992;5.924;2023-03-19T09:48:24;100835.50;;;12.78;70.43
69402;BME280;56589;51.992;5.924;2023-03-19T09:50:58;100831.56;;;12.83;70.07
69402;BME280;56589;51.992;5.924;2023-03-19T09:53:34;100830.28;;;12.89;70.00
69402;BME280;56589;51.992;5.924;2023-03-19T09:56:12;100832.59;;;12.93;69.73
69402;BME280;56589;51.992;5.924;2023-03-19T09:58:40;100832.34;;;12.96;69.19
69402;BME280;56589;51.992;5.924;2023-03-19T10:01:06;100838.25;;;13.00;69.38
69402;BME280;56589;51.992;5.924;2023-03-19T10:03:42;100840.53;;;13.05;69.21
69402;BME280;56589;51.992;5.924;2023-03-19T10:06:24;100844.41;;;13.12;69.20
69402;BME280;56589;51.992;5.924;2023-03-19T10:09:01;100834.34;;;13.17;68.79
69402;BME280;56589;51.992;5.924;2023-03-19T10:11:46;100844.09;;;13.28;69.44
69402;BME280;56589;51.992;5.924;2023-03-19T10:14:41;100846.53;;;13.42;68.88
69402;BME280;56589;51.992;5.924;2023-03-19T10:17:18;100851.06;;;13.52;68.93
69402;BME280;56589;51.992;5.924;2023-03-19T10:19:55;100849.28;;;13.64;68.39
69402;BME280;56589;51.992;5.924;2023-03-19T10:22:28;100855.91;;;13.70;68.26
69402;BME280;56589;51.992;5.924;2023-03-19T10:25:01;100856.88;;;13.80;68.21
69402;BME280;56589;51.992;5.924;2023-03-19T10:27:28;100861.44;;;13.89;67.24
69402;BME280;56589;51.992;5.924;2023-03-19T10:29:54;100860.97;;;13.95;67.65
69402;BME280;56589;51.992;5.924;2023-03-19T10:32:27;100866.97;;;13.97;67.21
69402;BME280;56589;51.992;5.924;2023-03-19T10:35:08;100859.31;;;13.94;66.67
69402;BME280;56589;51.992;5.924;2023-03-19T10:37:42;100870.22;;;13.90;66.97
69402;BME280;56589;51.992;5.924;2023-03-19T10:40:16;100866.03;;;13.98;66.99
69402;BME280;56589;51.992;5.924;2023-03-19T10:42:53;100867.94;;;14.08;66.64
69402;BME280;56589;51.992;5.924;2023-03-19T10:45:30;100865.56;;;14.27;66.40
69402;BME280;56589;51.992;5.924;2023-03-19T10:47:59;100872.88;;;14.46;66.02
69402;BME280;56589;51.992;5.924;2023-03-19T10:50:33;100862.06;;;14.60;65.22
69402;BME280;56589;51.992;5.924;2023-03-19T10:53:05;100870.84;;;14.72;65.01
69402;BME280;56589;51.992;5.924;2023-03-19T10:55:49;100874.19;;;14.85;64.96
69402;BME280;56589;51.992;5.924;2023-03-19T10:58:22;100879.47;;;14.96;64.63
69402;BME280;56589;51.992;5.924;2023-03-19T11:00:55;100876.38;;;15.12;64.32
69402;BME280;56589;51.992;5.924;2023-03-19T11:03:29;100863.97;;;15.24;63.95
69402;BME280;56589;51.992;5.924;2023-03-19T11:06:14;100867.41;;;15.35;63.82
69402;BME280;56589;51.992;5.924;2023-03-19T11:08:42;100872.88;;;15.44;63.71
69402;BME280;56589;51.992;5.924;2023-03-19T11:11:22;100866.97;;;15.51;63.17
69402;BME280;56589;51.992;5.924;2023-03-19T11:13:49;100862.91;;;15.47;62.87
69402;BME280;56589;51.992;5.924;2023-03-19T11:16:15;100874.50;;;15.35;63.31
69402;BME280;56589;51.992;5.924;2023-03-19T11:18:41;100869.72;;;15.29;62.86
69402;BME280;56589;51.992;5.924;2023-03-19T11:21:22;100870.09;;;15.24;62.76
69402;BME280;56589;51.992;5.924;2023-03-19T11:23:58;100864.94;;;15.23;62.49
69402;BME280;56589;51.992;5.924;2023-03-19T11:26:25;100886.34;;;15.20;63.24
69402;BME280;56589;51.992;5.924;2023-03-19T11:28:51;100880.94;;;15.21;63.19
69402;BME280;56589;51.992;5.924;2023-03-19T11:31:22;100878.88;;;15.25;62.33
69402;BME280;56589;51.992;5.924;2023-03-19T11:34:02;100876.81;;;15.28;62.51
69402;BME280;56589;51.992;5.924;2023-03-19T11:36:47;100882.91;;;15.40;62.39
69402;BME280;56589;51.992;5.924;2023-03-19T11:39:26;100884.81;;;15.38;61.27
69402;BME280;56589;51.992;5.924;2023-03-19T11:42:10;100887.09;;;15.43;62.34
69402;BME280;56589;51.992;5.924;2023-03-19T11:45:09;100894.47;;;15.60;62.50
69402;BME280;56589;51.992;5.924;2023-03-19T11:47:48;100892.66;;;15.72;61.99
69402;BME280;56589;51.992;5.924;2023-03-19T11:50:25;100888.88;;;15.74;61.54
69402;BME280;56589;51.992;5.924;2023-03-19T11:53:16;100894.66;;;15.68;62.04
69402;BME280;56589;51.992;5.924;2023-03-19T11:55:55;100888.81;;;15.64;62.21
69402;BME280;56589;51.992;5.924;2023-03-19T11:58:41;100895.06;;;15.63;61.91
69402;BME280;56589;51.992;5.924;2023-03-19T12:01:22;100889.09;;;15.50;62.36
69402;BME280;56589;51.992;5.924;2023-03-19T12:04:19;100890.44;;;15.45;62.49
69402;BME280;56589;51.992;5.924;2023-03-19T12:07:05;100894.91;;;15.44;62.81
69402;BME280;56589;51.992;5.924;2023-03-19T12:09:47;100897.88;;;15.51;63.19
69402;BME280;56589;51.992;5.924;2023-03-19T12:12:25;100901.81;;;15.56;63.04
69402;BME280;56589;51.992;5.924;2023-03-19T12:15:05;100906.28;;;15.56;62.70
69402;BME280;56589;51.992;5.924;2023-03-19T12:17:48;100898.84;;;15.50;62.63
69402;BME280;56589;51.992;5.924;2023-03-19T12:20:33;100903.47;;;15.36;62.79
69402;BME280;56589;51.992;5.924;2023-03-19T12:23:09;100910.59;;;15.25;63.01
69402;BME280;56589;51.992;5.924;2023-03-19T12:25:57;100911.72;;;15.22;62.82
69402;BME280;56589;51.992;5.924;2023-03-19T12:28:30;100916.72;;;15.25;62.95
69402;BME280;56589;51.992;5.924;2023-03-19T12:31:23;100916.03;;;15.23;62.11
69402;BME280;56589;51.992;5.924;2023-03-19T12:34:06;100908.63;;;15.06;62.64
69402;BME280;56589;51.992;5.924;2023-03-19T12:36:48;100907.78;;;15.05;62.38
69402;BME280;56589;51.992;5.924;2023-03-19T12:39:23;100908.75;;;15.04;62.44
69402;BME280;56589;51.992;5.924;2023-03-19T12:41:57;100916.75;;;15.14;62.86
69402;BME280;56589;51.992;5.924;2023-03-19T12:44:28;100911.44;;;15.25;62.59
69402;BME280;56589;51.992;5.924;2023-03-19T12:47:02;100908.44;;;15.30;62.32
69402;BME280;56589;51.992;5.924;2023-03-19T12:49:34;100908.59;;;15.17;61.73
69402;BME280;56589;51.992;5.924;2023-03-19T12:52:13;100907.56;;;15.08;62.51
69402;BME280;56589;51.992;5.924;2023-03-19T12:54:51;100908.81;;;15.14;62.13
69402;BME280;56589;51.992;5.924;2023-03-19T12:57:31;100918.19;;;15.29;62.36
69402;BME280;56589;51.992;5.924;2023-03-19T13:00:06;100914.69;;;15.29;61.63
69402;BME280;56589;51.992;5.924;2023-03-19T13:02:43;100919.38;;;15.25;61.49
69402;BME280;56589;51.992;5.924;2023-03-19T13:05:30;100911.59;;;15.12;60.95